Time;durP1;ratioP1;P1;durP2;ratioP2;P2;SDS_P1;SDS_P2;PMS_P1;PMS_P2;Temp;Humidity;BMP_temperature;BMP_pressure;BME280_temperature;BME280_humidity;BME280_pressure;Samples;Min_cycle;Max_cycle;Signal;HPM_P1;HPM_P2
2022/05/31 00:01:56;;;;;;;4.85;3.72;;;;;;;8.40;70.93;100539.23;1825020;78;21042;-68
2022/05/31 00:04:22;;;;;;;6.67;3.75;;;;;;;8.37;70.95;100542.17;1791379;80;21037;-68
2022/05/31 00:06:48;;;;;;;11.05;5.40;;;;;;;8.31;71.02;100538.81;1792718;80;20962;-68
2022/05/31 00:09:14;;;;;;;11.75;5.60;;;;;;;8.25;71.09;100538.55;1763582;79;21497;-68
2022/05/31 00:11:42;;;;;;;6.92;4.45;;;;;;;8.19;71.17;100545.31;1828327;78;20948;-68
2022/05/31 00:14:10;;;;;;;7.67;3.87;;;;;;;8.14;71.23;100538.28;1802783;78;21498;-68
2022/05/31 00:16:36;;;;;;;8.13;4.55;;;;;;;8.10;71.31;100538.23;1764856;81;20963;-68
2022/05/31 00:19:03;;;;;;;6.75;4.22;;;;;;;8.05;71.37;100540.52;1796547;78;20966;-68
2022/05/31 00:21:51;;;;;;;9.03;4.65;;;;;;;7.98;71.45;100542.11;1771472;79;21796;-68
2022/05/31 00:24:20;;;;;;;8.95;5.25;;;;;;;7.95;71.53;100546.39;1784082;79;20979;-68
2022/05/31 00:26:46;;;;;;;8.78;4.87;;;;;;;7.85;71.59;100548.25;1772053;79;21449;-68
2022/05/31 00:29:13;;;;;;;8.73;5.83;;;;;;;7.75;71.67;100546.14;1784459;79;21033;-68
2022/05/31 00:31:44;;;;;;;11.88;5.55;;;;;;;7.70;71.80;100550.59;1796089;78;21371;-68
2022/05/31 00:34:10;;;;;;;8.68;5.47;;;;;;;7.68;71.86;100560.98;1823632;78;21139;-68
2022/05/31 00:36:38;;;;;;;9.65;5.37;;;;;;;7.67;71.98;100562.80;1794342;79;21022;-68
2022/05/31 00:39:05;;;;;;;10.98;6.03;;;;;;;7.64;72.02;100560.45;1827857;78;20975;-69
2022/05/31 00:41:33;;;;;;;9.83;6.05;;;;;;;7.54;72.07;100561.83;1796342;79;20979;-68
2022/05/31 00:44:04;;;;;;;9.33;6.22;;;;;;;7.47;72.17;100562.55;1828675;78;21651;-68
2022/05/31 00:46:47;;;;;;;9.18;5.85;;;;;;;7.43;72.26;100567.80;1796459;79;21151;-69
2022/05/31 00:49:17;;;;;;;9.28;5.33;;;;;;;7.37;72.33;100563.92;1799347;78;21486;-68
2022/05/31 00:51:47;;;;;;;9.50;5.83;;;;;;;7.29;72.41;100563.80;1793998;79;21558;-68
2022/05/31 00:54:16;;;;;;;7.50;5.08;;;;;;;7.25;72.53;100563.74;1828091;78;20977;-68
2022/05/31 00:56:43;;;;;;;6.83;4.90;;;;;;;7.21;72.61;100567.69;1767865;79;21592;-68
2022/05/31 00:59:19;;;;;;;7.58;5.10;;;;;;;7.16;72.69;100569.92;1829175;78;21582;-69
2022/05/31 01:01:51;;;;;;;9.35;6.12;;;;;;;7.13;72.77;100571.55;1765574;79;21021;-69
2022/05/31 01:04:20;;;;;;;8.98;5.03;;;;;;;7.10;72.88;100567.86;1792590;79;21005;-69
2022/05/31 01:06:46;;;;;;;10.30;5.92;;;;;;;7.07;72.96;100570.80;1814235;78;20994;-69
2022/05/31 01:09:12;;;;;;;7.83;5.47;;;;;;;7.06;73.08;100574.42;1804657;78;20994;-68
2022/05/31 01:11:40;;;;;;;8.33;5.60;;;;;;;7.02;73.13;100580.98;1771859;79;21077;-69
2022/05/31 01:14:07;;;;;;;12.75;7.28;;;;;;;6.98;73.22;100579.11;1794684;78;20919;-69
2022/05/31 01:16:33;;;;;;;15.48;7.65;;;;;;;6.99;73.31;100580.79;1764860;81;21014;-69
2022/05/31 01:18:58;;;;;;;11.55;6.87;;;;;;;7.01;73.38;100587.25;1793214;79;20914;-69
2022/05/31 01:21:24;;;;;;;9.35;6.22;;;;;;;6.99;73.45;100590.06;1760445;80;21094;-69
2022/05/31 01:23:59;;;;;;;10.48;6.37;;;;;;;6.95;73.51;100588.67;1769945;78;21118;-69
2022/05/31 01:26:55;;;;;;;13.65;7.50;;;;;;;6.93;73.58;100580.52;1792982;80;21049;-69
2022/05/31 01:29:25;;;;;;;9.63;6.22;;;;;;;6.88;73.65;100587.56;1732376;81;21022;-69
2022/05/31 01:32:00;;;;;;;11.43;6.80;;;;;;;6.84;73.74;100591.95;1793721;78;21081;-69
2022/05/31 01:34:42;;;;;;;14.03;7.30;;;;;;;6.81;73.84;100586.95;1775424;80;20963;-69
2022/05/31 01:37:08;;;;;;;13.58;8.08;;;;;;;6.80;73.89;100598.52;1794298;78;21299;-69
2022/05/31 01:39:42;;;;;;;13.15;6.95;;;;;;;6.77;73.97;100598.80;1765076;81;21027;-69
2022/05/31 01:42:20;;;;;;;11.95;7.72;;;;;;;6.75;74.04;100598.95;1801832;78;20983;-68
2022/05/31 01:44:50;;;;;;;11.43;7.37;;;;;;;6.73;74.09;100602.70;1792780;79;21061;-68
2022/05/31 01:47:16;;;;;;;;;;;;;;;6.70;74.20;100600.34;1799249;79;21050;-69
2022/05/31 01:49:44;;;;;;;9.73;6.87;;;;;;;6.69;74.26;100606.61;1828612;78;21162;-68
2022/05/31 01:52:10;;;;;;;9.78;6.78;;;;;;;6.68;74.30;100611.58;1819296;78;21100;-68
2022/05/31 01:54:36;;;;;;;12.58;7.50;;;;;;;6.66;74.39;100606.89;1796479;78;20839;-68
2022/05/31 01:57:04;;;;;;;11.22;7.03;;;;;;;6.63;74.44;100604.04;1821431;78;20986;-68
2022/05/31 01:59:36;;;;;;;11.10;6.87;;;;;;;6.62;74.53;100602.36;1794345;79;21424;-68
2022/05/31 02:02:03;;;;;;;14.35;7.37;;;;;;;6.62;74.60;100608.14;1792835;79;21146;-68
2022/05/31 02:04:29;;;;;;;15.95;8.20;;;;;;;6.64;74.66;100608.86;1792742;80;20951;-68
2022/05/31 02:07:13;;;;;;;16.45;7.33;;;;;;;6.62;74.73;100608.14;1761606;81;21013;-69
2022/05/31 02:09:40;;;;;;;12.80;7.20;;;;;;;6.60;74.79;100606.13;1765840;80;20967;-68
2022/05/31 02:12:08;;;;;;;12.70;7.55;;;;;;;6.58;74.84;100608.09;1796647;78;21022;-68
2022/05/31 02:14:34;;;;;;;13.28;8.05;;;;;;;6.57;74.91;100614.36;1825346;78;21366;-69
2022/05/31 02:17:01;;;;;;;11.73;7.65;;;;;;;6.53;74.97;100606.70;1822634;78;21003;-68
2022/05/31 02:19:28;;;;;;;11.73;7.35;;;;;;;6.51;75.01;100614.41;1761627;80;21483;-69
2022/05/31 02:21:59;;;;;;;13.18;7.12;;;;;;;6.50;75.08;100612.28;1792758;80;21485;-69
2022/05/31 02:24:25;;;;;;;15.98;7.55;;;;;;;6.52;75.12;100618.27;1775404;80;20991;-68
2022/05/31 02:26:51;;;;;;;11.55;7.58;;;;;;;6.58;75.19;100612.07;1820684;78;21525;-68
2022/05/31 02:29:25;;;;;;;9.60;6.90;;;;;;;6.61;75.24;100611.79;1795570;79;21018;-69
2022/05/31 02:31:51;;;;;;;11.00;7.30;;;;;;;6.62;75.30;100610.30;1800082;78;21536;-68
2022/05/31 02:34:22;;;;;;;10.82;7.25;;;;;;;6.61;75.36;100603.36;1782806;80;21002;-69
2022/05/31 02:36:49;;;;;;;11.30;7.15;;;;;;;6.61;75.43;100609.14;1822949;78;20975;-69
2022/05/31 02:39:15;;;;;;;14.53;7.90;;;;;;;6.60;75.51;100612.27;1775150;79;21080;-69
2022/05/31 02:41:41;;;;;;;11.85;8.38;;;;;;;6.61;75.60;100612.63;1793012;78;21005;-68
2022/05/31 02:44:08;;;;;;;12.53;7.37;;;;;;;6.64;75.66;100615.48;1765229;81;21534;-68
2022/05/31 02:46:34;;;;;;;11.40;8.10;;;;;;;6.65;75.73;100614.52;1802357;78;21573;-68
2022/05/31 02:49:01;;;;;;;10.93;7.60;;;;;;;6.68;75.79;100614.23;1769956;79;21085;-68
2022/05/31 02:51:27;;;;;;;10.13;7.22;;;;;;;6.70;75.87;100617.56;1824856;78;21134;-68
2022/05/31 02:53:53;;;;;;;13.30;8.53;;;;;;;6.72;75.95;100620.93;1767174;80;21484;-68
2022/05/31 02:56:19;;;;;;;13.98;7.08;;;;;;;6.75;76.01;100624.62;1795197;79;20971;-68
2022/05/31 02:58:46;;;;;;;13.28;7.85;;;;;;;6.76;76.07;100624.95;1824098;78;21072;-69
2022/05/31 03:01:20;;;;;;;12.58;6.87;;;;;;;6.76;76.10;100623.62;1796493;79;21003;-69
2022/05/31 03:03:46;;;;;;;13.83;7.87;;;;;;;6.76;76.16;100628.92;1807853;78;21765;-69
2022/05/31 03:06:12;;;;;;;22.20;10.28;;;;;;;6.76;76.22;100628.44;1769649;81;20962;-69
2022/05/31 03:08:38;;;;;;;13.93;7.85;;;;;;;6.75;76.28;100625.46;1823479;78;20991;-69
2022/05/31 03:11:04;;;;;;;24.55;12.73;;;;;;;6.73;76.29;100623.91;1770103;80;21030;-71
2022/05/31 03:13:30;;;;;;;13.13;8.65;;;;;;;6.68;76.32;100620.37;1783796;79;21530;-69
2022/05/31 03:15:57;;;;;;;19.92;10.85;;;;;;;6.68;76.37;100627.48;1792516;80;21687;-68
2022/05/31 03:18:26;;;;;;;14.93;8.18;;;;;;;6.67;76.43;100629.77;1792792;80;21077;-69
2022/05/31 03:20:54;;;;;;;15.38;7.00;;;;;;;6.66;76.45;100622.79;1794142;78;21042;-68
2022/05/31 03:23:33;;;;;;;17.98;7.65;;;;;;;6.67;76.50;100628.45;1766322;78;21318;-68
2022/05/31 03:26:01;;;;;;;16.25;7.80;;;;;;;6.68;76.55;100628.80;1816925;78;21029;-70
2022/05/31 03:28:27;;;;;;;13.80;6.17;;;;;;;6.71;76.59;100632.50;1790032;80;21666;-69
2022/05/31 03:30:54;;;;;;;14.83;8.33;;;;;;;6.89;76.75;100632.15;1824854;78;21483;-69
2022/05/31 03:33:20;;;;;;;9.20;5.75;;;;;;;7.68;77.27;100630.00;1825143;78;20971;-69
2022/05/31 03:35:46;;;;;;;9.50;6.40;;;;;;;8.79;77.47;100630.63;1791959;80;20917;-70
2022/05/31 03:38:12;;;;;;;8.15;5.08;;;;;;;9.79;77.39;100629.64;1821474;78;21460;-69
2022/05/31 03:40:56;;;;;;;7.03;5.80;;;;;;;10.75;77.16;100626.96;1792577;80;21611;-70
2022/05/31 03:43:23;;;;;;;10.40;5.75;;;;;;;11.65;76.87;100626.70;1822911;78;21463;-70
2022/05/31 03:45:49;;;;;;;6.58;4.80;;;;;;;12.44;76.44;100629.25;1795700;79;21070;-70
2022/05/31 03:48:15;;;;;;;7.33;4.53;;;;;;;13.16;76.00;100624.38;1824444;78;20887;-70
2022/05/31 03:50:41;;;;;;;4.65;3.98;;;;;;;14.00;75.38;100627.19;1790997;80;21062;-70
2022/05/31 03:53:08;;;;;;;8.80;4.35;;;;;;;14.53;74.75;100634.56;1817343;78;21391;-70
2022/05/31 03:55:39;;;;;;;9.05;4.53;;;;;;;14.91;74.08;100636.00;1800200;78;21030;-70
2022/05/31 03:58:05;;;;;;;6.78;3.72;;;;;;;15.41;73.23;100616.97;1759810;81;21490;-70
2022/05/31 04:00:31;;;;;;;7.20;3.52;;;;;;;15.76;72.45;100611.13;1792399;80;21529;-70
2022/05/31 04:02:57;;;;;;;6.40;4.17;;;;;;;16.23;71.58;100619.75;1759968;81;20969;-70
2022/05/31 04:05:23;;;;;;;5.62;3.33;;;;;;;16.80;70.74;100623.87;1793142;78;21760;-70
2022/05/31 04:07:54;;;;;;;5.83;4.47;;;;;;;17.16;69.73;100621.64;1793996;78;20887;-70
2022/05/31 04:10:20;;;;;;;4.08;3.37;;;;;;;17.36;68.87;100617.06;1775734;79;21124;-70
2022/05/31 04:12:47;;;;;;;5.22;3.75;;;;;;;17.84;67.87;100622.19;1762125;80;20990;-70
2022/05/31 04:15:13;;;;;;;4.30;3.33;;;;;;;18.21;66.96;100621.45;1731707;82;21034;-70
2022/05/31 04:17:39;;;;;;;4.85;3.17;;;;;;;18.46;65.95;100626.43;1730665;83;21049;-70
2022/05/31 04:20:08;;;;;;;4.70;3.60;;;;;;;18.78;65.02;100623.78;1761131;81;21529;-71
2022/05/31 04:22:34;;;;;;;7.33;3.85;;;;;;;19.15;63.99;100622.88;1738301;81;21002;-71
2022/05/31 04:25:01;;;;;;;5.83;4.10;;;;;;;19.33;63.05;100620.23;1734031;82;21027;-70
2022/05/31 04:27:28;;;;;;;5.83;4.55;;;;;;;19.53;61.87;100622.77;1762739;81;21543;-70
2022/05/31 04:29:55;;;;;;;6.17;3.92;;;;;;;19.46;60.37;100619.30;1742359;82;21569;-70
2022/05/31 04:32:21;;;;;;;5.15;3.95;;;;;;;19.09;59.67;100620.23;1743069;81;21023;-70
2022/05/31 04:34:47;;;;;;;6.35;4.45;;;;;;;18.50;59.60;100617.89;1743132;81;21002;-70
2022/05/31 04:37:13;;;;;;;10.20;5.22;;;;;;;17.94;59.79;100622.59;1757269;80;21605;-70
2022/05/31 04:39:39;;;;;;;8.55;5.62;;;;;;;17.70;59.87;100628.65;1748930;80;20992;-70
2022/05/31 04:42:08;;;;;;;7.80;5.17;;;;;;;17.58;59.84;100624.95;1743161;80;21155;-70
2022/05/31 04:44:34;;;;;;;17.43;8.43;;;;;;;17.29;59.71;100628.37;1728873;82;21110;-71
2022/05/31 04:47:02;;;;;;;19.87;9.10;;;;;;;17.25;59.71;100624.94;1743313;80;21070;-71
2022/05/31 04:49:29;;;;;;;18.77;8.63;;;;;;;17.22;59.58;100623.49;1765067;80;21483;-71
2022/05/31 04:51:55;;;;;;;15.43;8.35;;;;;;;17.22;59.37;100620.80;1745037;80;21062;-71
2022/05/31 04:54:23;;;;;;;17.00;8.55;;;;;;;17.48;59.30;100628.89;1743020;81;21099;-71
2022/05/31 04:56:49;;;;;;;9.55;5.22;;;;;;;17.71;59.08;100633.02;1743420;80;20998;-71
2022/05/31 04:59:17;;;;;;;8.38;5.55;;;;;;;17.95;58.67;100633.16;1750206;80;21002;-71
2022/05/31 05:01:43;;;;;;;11.95;5.28;;;;;;;17.34;58.19;100629.10;1773728;80;20998;-71
2022/05/31 05:04:10;;;;;;;10.43;5.05;;;;;;;17.11;58.31;100632.20;1773680;80;21053;-71
2022/05/31 05:06:36;;;;;;;8.23;3.85;;;;;;;17.01;58.09;100627.73;1773724;81;21141;-71
2022/05/31 05:09:03;;;;;;;6.75;3.72;;;;;;;17.11;57.94;100628.16;1772409;81;21472;-71
2022/05/31 05:11:32;;;;;;;5.95;3.75;;;;;;;17.23;57.60;100621.12;1776237;79;21054;-71
2022/05/31 05:13:57;;;;;;;4.97;2.95;;;;;;;17.20;57.38;100626.09;1793064;78;20963;-71
2022/05/31 05:16:23;;;;;;;2.92;1.92;;;;;;;17.34;57.32;100629.94;1765832;79;21105;-71
2022/05/31 05:18:49;;;;;;;6.45;4.58;;;;;;;17.31;56.98;100633.02;1792972;78;21125;-71
2022/05/31 05:21:16;;;;;;;5.70;2.90;;;;;;;17.05;56.75;100631.68;1761653;81;21004;-71
2022/05/31 05:23:42;;;;;;;5.28;2.90;;;;;;;16.74;56.65;100633.62;1793195;78;20998;-71
2022/05/31 05:26:08;;;;;;;3.33;2.30;;;;;;;16.84;56.67;100637.25;1773010;80;20955;-71
2022/05/31 05:31:27;;;;;;;3.25;2.20;;;;;;;16.58;56.62;100638.02;1792912;80;21443;-71
2022/05/31 05:33:54;;;;;;;7.75;3.30;;;;;;;16.95;56.74;100633.95;1792646;80;21442;-71
2022/05/31 05:36:20;;;;;;;4.90;3.00;;;;;;;17.20;56.53;100635.53;1795793;78;20967;-71
2022/05/31 05:38:47;;;;;;;4.30;2.70;;;;;;;17.28;56.38;100629.91;1803420;78;21026;-71
2022/05/31 05:41:14;;;;;;;3.00;2.60;;;;;;;17.28;56.11;100634.78;1787335;78;21034;-71
2022/05/31 05:43:40;;;;;;;4.42;2.42;;;;;;;17.29;56.08;100632.41;1782110;78;21476;-71
2022/05/31 05:46:15;;;;;;;3.65;2.22;;;;;;;17.45;55.94;100636.56;1779415;80;20990;-71
2022/05/31 05:48:42;;;;;;;3.08;1.85;;;;;;;17.37;55.72;100634.91;1790480;80;21018;-71
2022/05/31 05:51:23;;;;;;;5.25;2.15;;;;;;;17.51;55.73;100633.54;1799600;78;20991;-71
2022/05/31 05:53:50;;;;;;;2.50;1.60;;;;;;;17.71;55.57;100641.94;1819813;78;21199;-71
2022/05/31 05:56:16;;;;;;;2.50;1.57;;;;;;;17.55;55.27;100638.31;1799352;78;21658;-71
2022/05/31 05:58:43;;;;;;;1.57;1.20;;;;;;;17.44;55.12;100641.64;1761520;81;20886;-71
2022/05/31 06:01:32;;;;;;;3.10;1.45;;;;;;;17.60;55.07;100641.23;1792364;80;20975;-71
2022/05/31 06:04:21;;;;;;;3.30;1.50;;;;;;;17.87;54.80;100648.22;1757706;81;21101;-71
2022/05/31 06:06:47;;;;;;;3.22;1.60;;;;;;;17.79;54.59;100640.89;1791156;80;21408;-71
2022/05/31 06:09:19;;;;;;;3.50;1.70;;;;;;;18.09;54.37;100648.80;1761429;81;21195;-71
2022/05/31 06:11:52;;;;;;;2.80;1.70;;;;;;;18.45;54.18;100652.29;1796926;78;20966;-71
2022/05/31 06:14:27;;;;;;;4.92;2.30;;;;;;;18.60;53.86;100654.23;1764861;81;20969;-71
2022/05/31 06:16:59;;;;;;;2.33;1.45;;;;;;;18.74;53.66;100653.11;1796750;78;21002;-71
2022/05/31 06:19:30;;;;;;;3.98;1.70;;;;;;;18.76;53.54;100658.28;1775304;79;21357;-71
2022/05/31 06:21:56;;;;;;;4.28;1.50;;;;;;;18.83;53.35;100656.37;1796596;79;21124;-71
2022/05/31 06:24:23;;;;;;;4.62;1.50;;;;;;;18.87;53.14;100663.83;1796512;79;20986;-71
2022/05/31 06:26:50;;;;;;;3.72;1.92;;;;;;;19.07;52.94;100663.69;1791217;78;21020;-71
2022/05/31 06:29:16;;;;;;;2.70;1.50;;;;;;;19.10;52.63;100668.69;1820192;78;21003;-71
2022/05/31 06:31:42;;;;;;;3.42;1.17;;;;;;;18.98;52.33;100666.36;1796491;79;20982;-71
2022/05/31 06:34:08;;;;;;;2.75;1.72;;;;;;;18.91;52.27;100661.01;1765167;81;21089;-71
2022/05/31 06:36:34;;;;;;;3.37;1.60;;;;;;;19.00;52.13;100661.55;1782727;78;20960;-71
2022/05/31 06:39:00;;;;;;;4.72;1.40;;;;;;;19.11;52.07;100668.97;1761732;81;21720;-71
2022/05/31 06:41:26;;;;;;;2.37;1.60;;;;;;;19.33;51.91;100668.08;1797884;78;20978;-71
2022/05/31 06:43:52;;;;;;;4.45;1.90;;;;;;;19.50;51.64;100665.67;1764775;81;21004;-71
2022/05/31 06:46:19;;;;;;;2.80;1.72;;;;;;;19.70;51.34;100664.99;1803462;78;21499;-71
2022/05/31 06:48:45;;;;;;;3.98;1.55;;;;;;;19.76;51.26;100660.03;1828558;78;21015;-71
2022/05/31 06:51:13;;;;;;;2.02;1.52;;;;;;;19.86;51.00;100661.70;1829180;78;21978;-71
2022/05/31 06:59:08;;;;;;;4.12;1.22;;;;;;;19.74;50.43;100668.88;1829174;78;21092;-71
2022/05/31 07:01:39;;;;;;;3.35;1.57;;;;;;;19.72;50.21;100672.35;1828926;78;21420;-71
2022/05/31 07:04:05;;;;;;;2.40;1.30;;;;;;;19.81;50.01;100671.00;1765545;79;21048;-71
2022/05/31 07:06:32;;;;;;;2.55;1.22;;;;;;;19.74;49.70;100668.36;1780600;79;21057;-71
2022/05/31 07:08:59;;;;;;;2.92;1.30;;;;;;;19.82;49.62;100664.55;1796465;78;21001;-71
2022/05/31 07:11:25;;;;;;;4.50;1.75;;;;;;;20.07;49.58;100661.26;1766268;80;21808;-71
2022/05/31 07:13:51;;;;;;;1.87;1.37;;;;;;;20.29;49.42;100659.79;1799679;78;20982;-71
2022/05/31 07:16:18;;;;;;;4.03;2.33;;;;;;;20.28;48.94;100663.55;1763542;80;20954;-71
2022/05/31 07:18:44;;;;;;;3.75;2.05;;;;;;;19.96;48.80;100664.70;1777550;80;21020;-71
2022/05/31 07:21:10;;;;;;;4.42;1.77;;;;;;;19.96;48.75;100662.00;1761931;78;21025;-71
2022/05/31 07:23:38;;;;;;;1.95;1.20;;;;;;;19.90;48.50;100658.33;1790989;80;21807;-71
2022/05/31 07:26:04;;;;;;;5.40;1.62;;;;;;;19.84;48.36;100659.75;1759289;81;20939;-71
2022/05/31 07:28:30;;;;;;;3.45;1.80;;;;;;;19.65;48.01;100662.11;1792073;78;21025;-71
2022/05/31 07:30:57;;;;;;;3.05;1.55;;;;;;;19.61;48.01;100663.60;1765542;79;21417;-71
2022/05/31 07:33:23;;;;;;;5.90;1.55;;;;;;;19.78;47.98;100664.69;1793005;80;21041;-71
2022/05/31 07:35:52;;;;;;;5.85;1.90;;;;;;;19.51;47.80;100669.53;1759830;81;21482;-71
2022/05/31 07:38:20;;;;;;;3.47;1.50;;;;;;;19.37;47.88;100674.19;1792086;80;20990;-71
2022/05/31 07:40:50;;;;;;;3.90;1.77;;;;;;;19.50;47.87;100675.98;1759637;81;21442;-71
2022/05/31 07:43:16;;;;;;;7.95;2.25;;;;;;;19.59;47.70;100669.25;1793314;78;20970;-71
2022/05/31 07:45:42;;;;;;;5.78;1.50;;;;;;;19.81;47.69;100669.64;1761497;81;20993;-71
2022/05/31 07:48:09;;;;;;;4.10;1.47;;;;;;;19.92;47.51;100666.20;1770792;80;21149;-71
2022/05/31 07:50:35;;;;;;;2.75;1.17;;;;;;;19.84;47.45;100663.81;1759920;81;21017;-71
2022/05/31 07:53:01;;;;;;;1.85;1.22;;;;;;;19.84;47.33;100660.55;1793344;78;20980;-71
2022/05/31 07:55:29;;;;;;;4.25;1.50;;;;;;;19.70;47.08;100659.58;1764705;80;21463;-71
2022/05/31 08:00:40;;;;;;;2.22;1.02;;;;;;;18.93;46.71;100660.77;1792416;80;21073;-71
2022/05/31 08:03:08;;;;;;;5.53;1.15;;;;;;;18.64;46.76;100661.38;1818608;78;21407;-71
2022/05/31 08:05:38;;;;;;;4.28;1.40;;;;;;;18.90;46.82;100659.86;1764739;81;21050;-71
2022/05/31 08:08:05;;;;;;;4.45;1.25;;;;;;;19.11;46.56;100660.86;1802839;78;20982;-71
2022/05/31 08:10:31;;;;;;;1.98;1.20;;;;;;;19.07;46.43;100656.93;1795007;79;21455;-71
2022/05/31 08:12:57;;;;;;;3.85;1.42;;;;;;;19.40;46.28;100646.70;1758723;80;21885;-70
2022/05/31 08:15:23;;;;;;;4.95;1.17;;;;;;;19.66;45.94;100644.84;1741580;82;21039;-71
2022/05/31 08:17:49;;;;;;;3.42;1.02;;;;;;;19.79;45.89;100641.98;1742125;81;20907;-71
2022/05/31 08:20:18;;;;;;;2.70;1.25;;;;;;;19.78;45.71;100645.73;1762908;80;20875;-71
2022/05/31 08:22:44;;;;;;;4.17;1.33;;;;;;;20.15;45.64;100646.08;1761348;80;21047;-71
2022/05/31 08:25:11;;;;;;;3.42;1.57;;;;;;;20.14;45.48;100641.70;1761055;81;21142;-71
2022/05/31 08:27:37;;;;;;;2.67;1.50;;;;;;;20.38;45.37;100639.97;1776733;80;21039;-71
2022/05/31 08:30:06;;;;;;;2.42;1.30;;;;;;;20.57;45.23;100642.13;1792327;80;21450;-71
2022/05/31 08:32:32;;;;;;;3.50;1.22;;;;;;;20.47;44.94;100639.14;1792410;80;21006;-70
2022/05/31 08:34:58;;;;;;;2.12;1.10;;;;;;;20.20;44.59;100634.02;1790898;80;21105;-70
2022/05/31 08:37:24;;;;;;;3.55;1.30;;;;;;;19.84;44.49;100634.03;1763459;80;21074;-71
2022/05/31 08:39:50;;;;;;;4.35;1.30;;;;;;;19.84;44.52;100637.55;1763339;80;21004;-71
2022/05/31 08:42:22;;;;;;;3.90;1.30;;;;;;;20.11;44.32;100642.68;1762390;80;20991;-71
2022/05/31 08:45:00;;;;;;;2.47;1.27;;;;;;;20.47;44.18;100637.79;1762352;80;21027;-71
2022/05/31 08:47:47;;;;;;;2.40;1.25;;;;;;;20.44;43.91;100635.81;1760984;81;21537;-71
2022/05/31 08:53:26;;;;;;;2.55;1.15;;;;;;;19.79;43.57;100640.64;1762176;80;21038;-70
2022/05/31 08:59:03;;;;;;;3.60;1.60;;;;;;;19.78;44.01;100635.74;1739763;81;21063;-71
2022/05/31 09:01:33;;;;;;;4.10;1.63;;;;;;;19.77;43.98;100631.38;1767423;80;21390;-71
2022/05/31 09:04:22;;;;;;;;;;;;;;;19.86;43.88;100629.22;1771914;80;21145;-71
2022/05/31 09:07:01;;;;;;;2.72;1.57;;;;;;;19.89;43.73;100628.76;1762371;80;20142;-71
2022/05/31 09:09:32;;;;;;;4.15;2.02;;;;;;;19.98;43.88;100633.36;1739292;81;21034;-71
2022/05/31 09:12:22;;;;;;;3.10;1.60;;;;;;;20.43;43.90;100627.41;1763675;79;21472;-71
2022/05/31 09:15:14;;;;;;;2.37;1.70;;;;;;;20.80;43.74;100627.30;1765376;80;21010;-69
2022/05/31 09:18:04;;;;;;;2.65;1.60;;;;;;;21.02;43.49;100627.08;1765264;80;21261;-70
2022/05/31 09:20:48;;;;;;;12.60;2.00;;;;;;;20.93;43.34;100627.92;1787552;80;21014;-71
2022/05/31 09:23:18;;;;;;;2.45;1.35;;;;;;;20.91;43.27;100625.16;1761266;81;21010;-71
2022/05/31 09:25:44;;;;;;;4.85;1.90;;;;;;;20.74;43.13;100621.45;1776657;80;20992;-71
2022/05/31 09:28:39;;;;;;;3.65;1.77;;;;;;;20.62;43.23;100624.67;1771716;80;20945;-70
2022/05/31 09:31:13;;;;;;;6.40;1.77;;;;;;;20.81;43.18;100620.83;1761327;80;21157;-71
2022/05/31 09:33:43;;;;;;;3.02;1.77;;;;;;;21.03;42.90;100619.77;1761865;80;21050;-70
2022/05/31 09:36:17;;;;;;;5.25;1.65;;;;;;;20.89;42.76;100618.62;1761657;80;21019;-70
2022/05/31 09:39:21;;;;;;;3.17;1.80;;;;;;;20.36;42.48;100618.55;1779757;80;21539;-70
2022/05/31 09:42:01;;;;;;;5.12;2.10;;;;;;;20.47;42.70;100611.53;1768393;80;21043;-70
2022/05/31 09:44:44;;;;;;;4.95;1.60;;;;;;;20.49;42.58;100607.22;1771465;80;21490;-71
2022/05/31 09:47:18;;;;;;;2.50;1.50;;;;;;;20.02;42.52;100606.94;1769905;80;21102;-70
2022/05/31 09:49:47;;;;;;;2.35;1.95;;;;;;;19.74;42.54;100605.28;1789908;80;21067;-70
2022/05/31 09:52:24;;;;;;;1.75;1.32;;;;;;;20.20;42.69;100596.09;1804311;78;21057;-70
2022/05/31 09:58:15;;;;;;;3.92;1.35;;;;;;;20.87;42.46;100604.45;1750252;81;21211;-70
2022/05/31 10:01:06;;;;;;;2.33;1.32;;;;;;;20.46;42.10;100607.16;1821908;78;21064;-70
2022/05/31 10:03:40;;;;;;;1.62;1.37;;;;;;;19.95;42.16;100608.90;1817464;78;21044;-71
2022/05/31 10:06:19;;;;;;;1.90;1.20;;;;;;;20.06;42.28;100602.73;1810091;78;20978;-70
2022/05/31 10:08:49;;;;;;;3.70;1.55;;;;;;;20.00;42.22;100595.52;1717661;82;21036;-70
2022/05/31 10:11:21;;;;;;;4.10;1.45;;;;;;;19.89;42.14;100598.98;1733538;81;21233;-70
2022/05/31 10:14:06;;;;;;;2.52;1.37;;;;;;;19.96;42.15;100586.20;1799398;78;20995;-70
2022/05/31 10:16:34;;;;;;;4.20;1.82;;;;;;;19.77;42.01;100581.86;1760446;80;21078;-70
2022/05/31 10:19:06;;;;;;;2.53;1.80;;;;;;;19.27;41.99;100589.19;1800604;78;21085;-70
2022/05/31 10:21:43;;;;;;;1.50;1.30;;;;;;;19.17;42.19;100584.81;1777368;80;21589;-71
2022/05/31 10:24:19;;;;;;;3.52;1.72;;;;;;;19.44;42.10;100577.61;1821047;78;21328;-71
2022/05/31 10:27:05;;;;;;;2.98;1.77;;;;;;;19.83;42.13;100573.66;1759103;80;21022;-71
2022/05/31 10:29:47;;;;;;;3.90;1.70;;;;;;;20.04;41.95;100569.66;1790768;78;21038;-71
2022/05/31 10:32:42;;;;;;;5.15;1.85;;;;;;;19.73;41.91;100567.12;1735737;80;21078;-70
2022/05/31 10:35:31;;;;;;;3.10;1.67;;;;;;;19.43;41.95;100561.59;1794514;77;21060;-70
2022/05/31 10:38:10;;;;;;;2.72;1.50;;;;;;;19.03;41.92;100569.23;1766232;80;21973;-70
2022/05/31 10:41:00;;;;;;;2.40;1.77;;;;;;;19.17;42.09;100565.37;1787220;78;21100;-71
2022/05/31 10:44:01;;;;;;;8.30;1.82;;;;;;;19.28;42.01;100561.91;1759675;80;21487;-71
2022/05/31 10:46:31;;;;;;;9.20;2.10;;;;;;;19.26;42.09;100568.08;1768491;80;21534;-71
2022/05/31 10:49:03;;;;;;;;;;;;;;;19.39;42.10;100565.76;1749582;81;21025;-71
2022/05/31 10:51:47;;;;;;;1.92;1.67;;;;;;;19.48;41.99;100563.12;1792804;78;21757;-71
2022/05/31 10:54:48;;;;;;;3.80;1.72;;;;;;;19.33;42.08;100564.78;1751944;81;21022;-71
2022/05/31 10:57:41;;;;;;;2.70;1.32;;;;;;;19.38;42.17;100561.42;1819052;78;21753;-71
2022/05/31 11:00:45;;;;;;;5.53;2.10;;;;;;;19.76;42.20;100557.19;1825401;78;21009;-71
2022/05/31 11:03:25;;;;;;;7.47;2.35;;;;;;;20.01;42.05;100547.09;1804879;78;21051;-71
2022/05/31 11:06:05;;;;;;;4.50;1.57;;;;;;;19.74;42.04;100549.80;1802758;78;21116;-71
2022/05/31 11:12:05;;;;;;;3.15;1.87;;;;;;;19.57;42.18;100550.10;1776132;79;21483;-71
2022/05/31 11:14:46;;;;;;;6.05;1.75;;;;;;;19.62;42.29;100548.92;1822918;78;20974;-70
2022/05/31 11:17:32;;;;;;;2.00;1.50;;;;;;;19.48;42.10;100542.00;1807358;78;21025;-70
2022/05/31 11:20:23;;;;;;;4.70;2.10;;;;;;;19.33;42.17;100539.61;1760158;79;21336;-70
2022/05/31 11:23:17;;;;;;;6.72;2.40;;;;;;;19.62;42.23;100546.21;1800205;78;21302;-71
2022/05/31 11:26:10;;;;;;;5.15;1.70;;;;;;;19.58;42.09;100538.23;1824339;78;21034;-69
2022/05/31 11:29:25;;;;;;;4.20;1.85;;;;;;;19.53;42.17;100534.05;1794871;79;21089;-64
2022/05/31 11:32:21;;;;;;;3.60;1.80;;;;;;;19.48;42.08;100533.88;1803832;78;21056;-64
2022/05/31 11:35:15;;;;;;;3.92;1.10;;;;;;;19.22;41.99;100539.83;1784278;79;21052;-65
2022/05/31 11:38:05;;;;;;;2.92;1.52;;;;;;;19.10;42.02;100534.86;1801274;78;20981;-65
2022/05/31 11:40:43;;;;;;;3.85;1.70;;;;;;;18.95;42.03;100534.36;1786418;78;21060;-65
2022/05/31 11:43:27;;;;;;;2.77;1.60;;;;;;;18.84;42.06;100532.37;1790351;80;21217;-65
2022/05/31 11:46:36;;;;;;;3.05;1.65;;;;;;;18.82;42.08;100525.82;1799841;78;21578;-65
2022/05/31 11:49:09;;;;;;;3.50;1.37;;;;;;;19.05;42.21;100523.88;1822629;78;21130;-65
2022/05/31 11:51:43;;;;;;;2.17;1.60;;;;;;;19.55;42.13;100521.94;1752723;80;21363;-65
2022/05/31 11:54:26;;;;;;;4.10;1.52;;;;;;;19.81;41.91;100518.08;1791516;80;21034;-65
2022/05/31 11:57:17;;;;;;;2.45;1.50;;;;;;;19.76;41.71;100514.72;1769424;80;21016;-64
2022/05/31 12:00:06;;;;;;;4.30;1.42;;;;;;;19.96;41.67;100513.09;1797161;78;21589;-65
2022/05/31 12:03:03;;;;;;;2.37;1.40;;;;;;;20.10;41.39;100507.80;1789819;80;21957;-65
2022/05/31 12:05:34;;;;;;;3.75;1.60;;;;;;;20.09;41.23;100508.85;1802451;78;21034;-65
2022/05/31 12:08:14;;;;;;;2.30;1.55;;;;;;;20.13;41.05;100510.58;1770317;79;21014;-65
2022/05/31 12:10:54;;;;;;;2.35;1.55;;;;;;;20.13;40.87;100505.98;1801475;78;21928;-65
2022/05/31 12:13:19;;;;;;;;;;;;;;;20.22;40.86;100514.11;1810905;78;21507;-65